createdAt,value
2023-01-25T00:01:05.994Z,24.60
2023-01-25T00:03:35.488Z,24.60
2023-01-25T00:06:03.669Z,23.20
2023-01-25T00:08:38.493Z,25.33
2023-01-25T00:11:06.644Z,23.83
2023-01-25T00:13:34.796Z,26.30
2023-01-25T00:16:03.982Z,25.63
2023-01-25T00:18:32.137Z,26.33
2023-01-25T00:21:01.590Z,26.90
2023-01-25T00:23:29.711Z,27.00
2023-01-25T00:25:58.940Z,27.83
2023-01-25T00:28:27.035Z,27.27
2023-01-25T00:30:55.054Z,28.10
2023-01-25T00:33:40.044Z,27.53
2023-01-25T00:36:33.580Z,27.40
2023-01-25T00:39:02.020Z,30.60
2023-01-25T00:41:30.302Z,28.33
2023-01-25T00:43:58.712Z,31.20
2023-01-25T00:46:26.774Z,28.67
2023-01-25T00:48:55.660Z,29.50
2023-01-25T00:51:24.388Z,28.63
2023-01-25T00:53:54.654Z,27.40
2023-01-25T00:56:22.772Z,29.80
2023-01-25T00:58:50.845Z,30.63
2023-01-25T01:01:20.825Z,30.33
2023-01-25T01:03:51.988Z,30.43
2023-01-25T01:06:20.326Z,30.00
2023-01-25T01:08:48.360Z,32.27
2023-01-25T01:11:17.789Z,28.63
2023-01-25T01:13:45.829Z,32.23
2023-01-25T01:16:14.679Z,32.23
2023-01-25T01:18:45.700Z,32.23
2023-01-25T01:21:15.074Z,32.03
2023-01-25T01:23:43.639Z,29.67
2023-01-25T01:26:14.526Z,33.30
2023-01-25T01:28:44.450Z,32.40
2023-01-25T01:31:15.001Z,30.63
2023-01-25T01:33:50.597Z,31.13
2023-01-25T01:36:21.299Z,29.80
2023-01-25T01:38:49.781Z,32.63
2023-01-25T01:41:18.469Z,32.60
2023-01-25T01:43:49.080Z,30.97
2023-01-25T01:46:26.393Z,30.57
2023-01-25T01:48:59.401Z,33.03
2023-01-25T01:51:36.260Z,31.30
2023-01-25T01:54:10.251Z,30.90
2023-01-25T01:56:44.757Z,32.60
2023-01-25T01:59:16.250Z,29.07
2023-01-25T02:01:45.667Z,29.80
2023-01-25T02:04:17.474Z,32.73
2023-01-25T02:06:51.795Z,32.53
2023-01-25T02:09:24.832Z,30.93
2023-01-25T02:11:54.723Z,30.60
2023-01-25T02:14:26.376Z,30.03
2023-01-25T02:16:54.471Z,30.90
2023-01-25T02:19:35.752Z,31.77
2023-01-25T02:22:10.201Z,30.87
2023-01-25T02:24:43.806Z,29.57
2023-01-25T02:27:13.295Z,33.20
2023-01-25T02:29:42.792Z,32.30
2023-01-25T02:32:10.915Z,30.73
2023-01-25T02:34:39.090Z,30.20
2023-01-25T02:37:09.529Z,31.50
2023-01-25T02:39:37.767Z,30.23
2023-01-25T02:42:05.911Z,31.60
2023-01-25T02:44:35.880Z,32.33
2023-01-25T02:47:05.301Z,30.37
2023-01-25T02:49:36.379Z,29.00
2023-01-25T02:52:05.734Z,30.90
2023-01-25T02:54:33.989Z,31.07
2023-01-25T02:57:03.141Z,26.67
2023-01-25T02:59:41.893Z,29.53
2023-01-25T03:02:10.186Z,30.50
2023-01-25T03:04:38.512Z,29.50
2023-01-25T03:07:06.922Z,31.73
2023-01-25T03:09:35.145Z,31.57
2023-01-25T03:12:03.322Z,30.70
2023-01-25T03:14:33.553Z,30.73
2023-01-25T03:17:04.013Z,30.73
2023-01-25T03:19:32.238Z,30.80
2023-01-25T03:22:00.311Z,31.60
2023-01-25T03:24:29.219Z,31.30
2023-01-25T03:27:14.057Z,30.83
2023-01-25T03:29:48.863Z,28.73
2023-01-25T03:32:28.693Z,30.67
2023-01-25T03:34:57.032Z,30.10
2023-01-25T03:37:31.353Z,31.60
2023-01-25T03:40:00.455Z,32.63
2023-01-25T03:42:28.601Z,31.33
2023-01-25T03:44:59.023Z,30.53
2023-01-25T03:47:28.744Z,29.43
2023-01-25T03:49:56.968Z,30.97
2023-01-25T03:52:26.780Z,30.43
2023-01-25T03:54:58.159Z,29.27
2023-01-25T03:57:26.527Z,30.90
2023-01-25T04:00:02.500Z,30.10
2023-01-25T04:02:34.295Z,30.90
2023-01-25T04:05:03.386Z,28.43
2023-01-25T04:07:31.525Z,30.20
2023-01-25T04:10:00.076Z,33.50
2023-01-25T04:12:28.343Z,30.80
2023-01-25T04:14:56.497Z,32.60
2023-01-25T04:17:26.615Z,29.93
2023-01-25T04:20:05.042Z,34.00
2023-01-25T04:22:37.773Z,31.33
2023-01-25T04:25:08.560Z,33.23
2023-01-25T04:27:40.256Z,31.67
2023-01-25T04:30:13.151Z,31.63
2023-01-25T04:32:42.542Z,30.70
2023-01-25T04:35:21.873Z,31.13
2023-01-25T04:37:55.971Z,29.97
2023-01-25T04:40:27.041Z,29.73
2023-01-25T04:42:55.111Z,30.60
2023-01-25T04:45:23.618Z,32.10
2023-01-25T04:47:56.234Z,32.60
2023-01-25T04:50:25.885Z,29.20
2023-01-25T04:52:55.077Z,28.90
2023-01-25T04:55:24.476Z,31.20
2023-01-25T04:57:54.594Z,29.90
2023-01-25T05:00:22.852Z,31.80
2023-01-25T05:02:50.945Z,29.60
2023-01-25T05:05:19.165Z,32.10
2023-01-25T05:07:50.420Z,33.90
2023-01-25T05:10:18.750Z,35.37
2023-01-25T05:13:06.735Z,33.93
2023-01-25T05:15:35.060Z,31.90
2023-01-25T05:18:04.298Z,31.40
2023-01-25T05:20:34.060Z,32.60
2023-01-25T05:23:04.025Z,33.07
2023-01-25T05:25:50.602Z,33.63
2023-01-25T05:28:26.963Z,35.40
2023-01-25T05:31:10.855Z,33.43
2023-01-25T05:33:38.909Z,29.50
2023-01-25T05:36:07.640Z,29.60
2023-01-25T05:38:39.790Z,31.30
2023-01-25T05:41:10.971Z,31.83
2023-01-25T05:43:39.095Z,32.50
2023-01-25T05:46:08.997Z,31.30
2023-01-25T05:48:37.888Z,35.57
2023-01-25T05:51:06.443Z,35.73
2023-01-25T05:53:34.934Z,33.33
2023-01-25T05:56:07.299Z,34.53
2023-01-25T05:58:36.176Z,31.60
2023-01-25T06:01:05.475Z,31.90
2023-01-25T06:03:43.503Z,31.60
2023-01-25T06:06:11.660Z,32.73
2023-01-25T06:08:40.121Z,31.20
2023-01-25T06:11:10.502Z,30.60
2023-01-25T06:13:42.679Z,30.70
2023-01-25T06:16:11.664Z,31.60
2023-01-25T06:18:40.085Z,32.03
2023-01-25T06:21:20.932Z,30.83
2023-01-25T06:23:49.169Z,31.00
2023-01-25T06:26:18.592Z,35.73
2023-01-25T06:28:46.723Z,33.87
2023-01-25T06:31:16.433Z,33.27
2023-01-25T06:33:48.163Z,36.40
2023-01-25T06:36:18.747Z,35.10
2023-01-25T06:38:50.296Z,32.97
2023-01-25T06:41:20.743Z,31.87
2023-01-25T06:43:51.791Z,30.90
2023-01-25T06:46:20.790Z,35.03
2023-01-25T06:48:49.236Z,32.33
2023-01-25T06:51:18.013Z,33.20
2023-01-25T06:53:47.309Z,37.10
2023-01-25T06:56:18.341Z,37.53
2023-01-25T06:58:48.493Z,37.07
2023-01-25T07:01:19.911Z,35.87
2023-01-25T07:03:50.021Z,35.07
2023-01-25T07:06:18.341Z,38.03
2023-01-25T07:08:47.025Z,34.97
2023-01-25T07:11:16.256Z,38.17
2023-01-25T07:13:46.774Z,38.20
2023-01-25T07:16:17.807Z,38.70
2023-01-25T07:18:46.342Z,38.30
2023-01-25T07:21:15.824Z,36.40
2023-01-25T07:23:44.816Z,38.30
2023-01-25T07:26:17.647Z,40.17
2023-01-25T07:28:46.603Z,40.87
2023-01-25T07:31:16.783Z,40.93
2023-01-25T07:33:45.209Z,39.57
2023-01-25T07:36:13.795Z,39.03
2023-01-25T07:38:41.813Z,40.53
2023-01-25T07:41:09.892Z,41.30
2023-01-25T07:43:37.947Z,41.17
2023-01-25T07:46:10.032Z,38.10
2023-01-25T07:48:40.306Z,40.63
2023-01-25T07:51:22.761Z,40.70
2023-01-25T07:53:52.207Z,42.23
2023-01-25T07:56:20.808Z,42.40
2023-01-25T07:58:49.218Z,40.63
2023-01-25T08:01:19.579Z,43.73
2023-01-25T08:03:49.375Z,42.03
2023-01-25T08:06:17.946Z,41.03
2023-01-25T08:08:48.259Z,39.73
2023-01-25T08:11:18.641Z,38.00
2023-01-25T08:13:46.974Z,38.20
2023-01-25T08:16:15.472Z,39.50
2023-01-25T08:18:43.640Z,38.77
2023-01-25T08:21:13.002Z,39.93
2023-01-25T08:23:41.086Z,38.10
2023-01-25T08:26:11.151Z,40.63
2023-01-25T08:28:39.483Z,42.90
2023-01-25T08:31:09.041Z,40.03
2023-01-25T08:33:37.472Z,40.63
2023-01-25T08:36:08.753Z,38.13
2023-01-25T08:38:38.282Z,40.53
2023-01-25T08:41:07.109Z,38.60
2023-01-25T08:43:35.291Z,37.53
2023-01-25T08:46:03.442Z,37.50
2023-01-25T08:48:31.665Z,38.00
2023-01-25T08:51:00.123Z,39.30
2023-01-25T08:53:29.077Z,38.10
2023-01-25T08:56:03.233Z,39.30
2023-01-25T08:58:31.786Z,37.50
2023-01-25T09:01:04.417Z,37.33
2023-01-25T09:03:33.205Z,38.23
2023-01-25T09:06:01.274Z,37.10
2023-01-25T09:08:29.342Z,38.70
2023-01-25T09:11:02.479Z,38.90
2023-01-25T09:13:30.648Z,38.00
2023-01-25T09:16:02.858Z,38.90
2023-01-25T09:18:32.215Z,36.33
2023-01-25T09:21:01.400Z,36.43
2023-01-25T09:23:29.525Z,36.40
2023-01-25T09:25:59.874Z,40.33
2023-01-25T09:28:29.981Z,37.40
2023-01-25T09:31:18.878Z,41.40
2023-01-25T09:34:17.168Z,35.33
2023-01-25T09:36:45.332Z,36.37
2023-01-25T09:39:13.613Z,35.30
2023-01-25T09:42:14.575Z,36.00
2023-01-25T09:45:16.299Z,33.73
2023-01-25T09:47:48.851Z,33.73
2023-01-25T09:50:34.228Z,34.17
2023-01-25T09:53:26.427Z,36.07
2023-01-25T09:55:59.123Z,35.50
2023-01-25T09:58:35.625Z,35.20
2023-01-25T10:01:21.759Z,36.03
2023-01-25T10:03:56.582Z,38.37
2023-01-25T10:06:30.497Z,38.07
2023-01-25T10:09:04.891Z,34.63
2023-01-25T10:11:33.950Z,36.50
2023-01-25T10:14:03.461Z,36.73
2023-01-25T10:16:36.288Z,39.40
2023-01-25T10:19:13.372Z,35.97
2023-01-25T10:21:44.484Z,38.30
2023-01-25T10:24:35.506Z,39.00
2023-01-25T10:27:15.791Z,37.10
2023-01-25T10:29:45.852Z,36.50
2023-01-25T10:32:20.593Z,36.13
2023-01-25T10:34:56.708Z,37.93
2023-01-25T10:37:28.715Z,34.80
2023-01-25T10:40:04.120Z,34.37
2023-01-25T10:42:42.378Z,34.50
2023-01-25T10:45:14.996Z,34.70
2023-01-25T10:47:46.995Z,37.43
2023-01-25T10:51:00.010Z,36.00
2023-01-25T10:53:31.271Z,36.83
2023-01-25T10:56:12.685Z,35.07
2023-01-25T10:58:42.399Z,37.13
2023-01-25T11:01:15.244Z,35.83
2023-01-25T11:03:45.667Z,38.43
2023-01-25T11:06:13.949Z,38.43
2023-01-25T11:08:43.656Z,39.20
2023-01-25T11:11:27.145Z,36.30
2023-01-25T11:13:56.034Z,37.10
2023-01-25T11:16:32.742Z,40.63
2023-01-25T11:19:02.724Z,37.30
2023-01-25T11:21:32.354Z,38.90
2023-01-25T11:24:18.141Z,39.70
2023-01-25T11:26:46.679Z,39.60
2023-01-25T11:29:17.343Z,37.93
2023-01-25T11:31:49.313Z,36.70
2023-01-25T11:34:19.129Z,40.27
2023-01-25T11:37:02.514Z,39.73
2023-01-25T11:39:47.717Z,41.40
2023-01-25T11:42:28.320Z,38.60
2023-01-25T11:45:21.917Z,39.13
2023-01-25T11:48:03.028Z,41.30
2023-01-25T11:50:37.541Z,35.20
2023-01-25T11:53:39.209Z,34.80
2023-01-25T11:56:14.637Z,34.10
2023-01-25T11:59:01.481Z,36.23
2023-01-25T12:01:39.376Z,37.33
2023-01-25T12:04:55.578Z,33.83
2023-01-25T12:07:36.685Z,35.63
2023-01-25T12:10:20.547Z,38.27
2023-01-25T12:12:56.726Z,36.83
2023-01-25T12:15:54.547Z,36.57
2023-01-25T12:18:35.489Z,36.67
2023-01-25T12:21:13.448Z,37.70
2023-01-25T12:24:15.425Z,34.90
2023-01-25T12:26:54.240Z,37.90
2023-01-25T12:29:27.768Z,40.17
2023-01-25T12:32:01.701Z,37.83
2023-01-25T12:34:36.828Z,38.90
2023-01-25T12:37:13.077Z,36.50
2023-01-25T12:39:50.237Z,38.37
2023-01-25T12:42:22.162Z,36.67
2023-01-25T12:44:57.310Z,41.53
2023-01-25T12:47:34.788Z,40.43
2023-01-25T12:50:10.889Z,37.23
2023-01-25T12:52:43.390Z,39.80
2023-01-25T12:55:17.593Z,38.43
2023-01-25T12:57:54.656Z,38.87
2023-01-25T13:00:26.906Z,39.33
2023-01-25T13:03:09.499Z,37.30
2023-01-25T13:05:43.076Z,37.33
2023-01-25T13:08:31.854Z,37.53
2023-01-25T13:11:10.872Z,40.17
2023-01-25T13:13:39.161Z,40.70
2023-01-25T13:16:36.482Z,44.53
2023-01-25T13:19:04.862Z,43.50
2023-01-25T13:21:46.213Z,44.03
2023-01-25T13:24:18.176Z,46.33
2023-01-25T13:27:25.662Z,49.63
2023-01-25T13:30:03.033Z,46.20
2023-01-25T13:33:07.049Z,49.53
2023-01-25T13:35:40.719Z,47.77
2023-01-25T13:38:35.710Z,46.50
2023-01-25T13:41:10.711Z,43.50
2023-01-25T13:43:45.372Z,40.47
2023-01-25T13:46:16.496Z,46.57
2023-01-25T13:49:03.873Z,48.13
2023-01-25T13:51:38.796Z,42.10
2023-01-25T13:54:07.004Z,43.10
2023-01-25T13:56:37.371Z,41.10
2023-01-25T13:59:07.024Z,43.53
2023-01-25T14:01:36.919Z,43.83
2023-01-25T14:04:06.783Z,40.13
2023-01-25T14:06:38.471Z,40.17
2023-01-25T14:09:16.408Z,41.27
2023-01-25T14:11:47.951Z,41.57
2023-01-25T14:14:22.370Z,41.20
2023-01-25T14:17:03.932Z,38.00
2023-01-25T14:19:33.459Z,40.57
2023-01-25T14:22:20.265Z,38.93
2023-01-25T14:25:08.531Z,37.17
2023-01-25T14:27:38.232Z,36.20
2023-01-25T14:30:16.806Z,35.37
2023-01-25T14:32:44.940Z,37.13
2023-01-25T14:35:43.141Z,37.50
2023-01-25T14:38:24.328Z,36.67
2023-01-25T14:40:56.061Z,42.03
2023-01-25T14:43:24.945Z,41.03
2023-01-25T14:45:54.746Z,41.63
2023-01-25T14:48:36.561Z,44.27
2023-01-25T14:51:07.756Z,44.47
2023-01-25T14:53:39.571Z,44.20
2023-01-25T14:56:20.476Z,41.57
2023-01-25T14:58:59.022Z,42.17
2023-01-25T15:01:33.873Z,43.60
2023-01-25T15:04:02.009Z,42.67
2023-01-25T15:06:30.179Z,41.37
2023-01-25T15:08:58.300Z,39.90
2023-01-25T15:11:48.820Z,44.13
2023-01-25T15:14:19.327Z,41.93
2023-01-25T15:16:49.175Z,41.57
2023-01-25T15:19:26.478Z,43.23
2023-01-25T15:21:56.562Z,41.70
2023-01-25T15:24:25.051Z,46.70
2023-01-25T15:26:54.284Z,45.37
2023-01-25T15:29:24.651Z,46.40
2023-01-25T15:31:55.781Z,46.13
2023-01-25T15:34:29.231Z,47.93
2023-01-25T15:36:57.435Z,46.70
2023-01-25T15:39:25.507Z,58.78
2023-01-25T15:41:53.566Z,54.67
2023-01-25T15:44:21.579Z,48.37
2023-01-25T15:46:52.230Z,46.70
2023-01-25T15:49:26.488Z,42.17
2023-01-25T15:51:54.725Z,44.10
2023-01-25T15:54:24.219Z,44.43
2023-01-25T15:56:55.903Z,42.87
2023-01-25T15:59:24.185Z,41.40
2023-01-25T16:01:52.336Z,41.47
2023-01-25T16:04:22.061Z,41.23
2023-01-25T16:06:51.991Z,42.43
2023-01-25T16:09:21.510Z,42.17
2023-01-25T16:11:52.592Z,44.13
2023-01-25T16:14:21.143Z,42.07
2023-01-25T16:16:51.015Z,42.10
2023-01-25T16:19:23.259Z,43.83
2023-01-25T16:21:52.099Z,44.00
2023-01-25T16:24:20.983Z,44.00
2023-01-25T16:26:53.109Z,50.57
2023-01-25T16:29:22.911Z,47.77
2023-01-25T16:31:51.469Z,43.73
2023-01-25T16:34:22.176Z,38.70
2023-01-25T16:36:51.203Z,40.80
2023-01-25T16:39:21.136Z,41.10
2023-01-25T16:41:49.780Z,44.73
2023-01-25T16:44:18.258Z,43.53
2023-01-25T16:46:49.684Z,40.10
2023-01-25T16:49:20.478Z,44.53
2023-01-25T16:51:50.728Z,40.23
2023-01-25T16:54:20.489Z,38.20
2023-01-25T16:56:49.309Z,38.77
2023-01-25T16:59:18.542Z,39.60
2023-01-25T17:01:47.035Z,36.53
2023-01-25T17:04:15.906Z,39.77
2023-01-25T17:06:46.053Z,39.63
2023-01-25T17:09:23.488Z,39.87
2023-01-25T17:11:52.983Z,34.93
2023-01-25T17:14:21.985Z,38.00
2023-01-25T17:16:53.598Z,33.30
2023-01-25T17:19:22.227Z,30.43
2023-01-25T17:21:50.357Z,31.80
2023-01-25T17:24:22.161Z,33.77
2023-01-25T17:26:50.774Z,33.00
2023-01-25T17:29:19.217Z,35.63
2023-01-25T17:31:47.362Z,32.73
2023-01-25T17:34:16.868Z,36.60
2023-01-25T17:36:45.530Z,33.10
2023-01-25T17:39:15.774Z,32.00
2023-01-25T17:41:46.191Z,33.90
2023-01-25T17:44:15.481Z,34.13
2023-01-25T17:46:43.624Z,36.53
2023-01-25T17:49:13.926Z,37.43
2023-01-25T17:51:42.051Z,35.20
2023-01-25T17:54:11.297Z,33.83
2023-01-25T17:56:39.869Z,33.43
2023-01-25T17:59:11.430Z,32.93
2023-01-25T18:01:42.648Z,33.00
2023-01-25T18:04:13.076Z,36.33
2023-01-25T18:06:41.268Z,34.37
2023-01-25T18:09:09.402Z,33.13
2023-01-25T18:11:39.978Z,34.73
2023-01-25T18:14:12.516Z,34.00
2023-01-25T18:16:41.553Z,36.10
2023-01-25T18:19:10.475Z,34.17
2023-01-25T18:21:40.659Z,36.67
2023-01-25T18:24:25.898Z,34.60
2023-01-25T18:26:59.598Z,34.83
2023-01-25T18:29:55.955Z,35.07
2023-01-25T18:32:24.205Z,38.33
2023-01-25T18:34:52.315Z,35.10
2023-01-25T18:37:22.122Z,35.13
2023-01-25T18:39:51.941Z,34.33
2023-01-25T18:42:21.319Z,34.27
2023-01-25T18:44:49.307Z,34.80
2023-01-25T18:47:20.878Z,33.57
2023-01-25T18:49:50.421Z,33.30
2023-01-25T18:52:19.484Z,33.80
2023-01-25T18:54:47.846Z,38.70
2023-01-25T18:57:17.135Z,35.83
2023-01-25T18:59:45.677Z,38.27
2023-01-25T19:02:15.054Z,36.00
2023-01-25T19:04:46.289Z,37.50
2023-01-25T19:07:14.561Z,37.70
2023-01-25T19:09:43.514Z,37.63
2023-01-25T19:12:11.706Z,39.73
2023-01-25T19:14:40.075Z,41.70
2023-01-25T19:17:08.798Z,38.00
2023-01-25T19:19:36.858Z,39.10
2023-01-25T19:22:06.640Z,38.43
2023-01-25T19:24:34.842Z,39.23
2023-01-25T19:27:03.387Z,37.53
2023-01-25T19:29:31.434Z,38.90
2023-01-25T19:31:59.567Z,42.17
2023-01-25T19:34:27.884Z,45.13
2023-01-25T19:36:57.313Z,39.70
2023-01-25T19:39:26.792Z,43.13
2023-01-25T19:41:55.001Z,42.00
2023-01-25T19:44:24.584Z,42.20
2023-01-25T19:46:52.671Z,41.73
2023-01-25T19:49:22.313Z,43.80
2023-01-25T19:51:53.282Z,40.83
2023-01-25T19:54:21.965Z,41.00
2023-01-25T19:56:51.680Z,39.23
2023-01-25T19:59:21.307Z,38.73
2023-01-25T20:01:49.818Z,38.10
2023-01-25T20:04:20.027Z,37.73
2023-01-25T20:06:49.034Z,38.37
2023-01-25T20:09:18.732Z,37.40
2023-01-25T20:11:47.245Z,37.10
2023-01-25T20:14:16.813Z,39.50
2023-01-25T20:16:44.879Z,34.30
2023-01-25T20:19:13.477Z,35.00
2023-01-25T20:21:41.933Z,38.23
2023-01-25T20:24:10.860Z,40.10
2023-01-25T20:26:42.768Z,36.30
2023-01-25T20:29:12.589Z,34.43
2023-01-25T20:31:43.352Z,34.73
2023-01-25T20:34:13.722Z,35.23
2023-01-25T20:36:42.128Z,35.70
2023-01-25T20:39:13.019Z,36.43
2023-01-25T20:41:41.277Z,36.77
2023-01-25T20:44:10.017Z,37.90
2023-01-25T20:46:39.572Z,39.03
2023-01-25T20:49:12.152Z,43.23
2023-01-25T20:51:40.626Z,39.30
2023-01-25T20:54:08.664Z,38.97
2023-01-25T20:56:37.698Z,38.37
2023-01-25T20:59:06.119Z,35.10
2023-01-25T21:01:36.935Z,34.60
2023-01-25T21:04:07.827Z,35.20
2023-01-25T21:06:38.754Z,34.80
2023-01-25T21:09:07.409Z,39.33
2023-01-25T21:11:35.562Z,35.00
2023-01-25T21:14:04.043Z,35.73
2023-01-25T21:16:32.173Z,34.60
2023-01-25T21:19:05.147Z,34.13
2023-01-25T21:21:34.683Z,35.10
2023-01-25T21:24:05.819Z,40.63
2023-01-25T21:26:35.427Z,36.93
2023-01-25T21:29:04.478Z,37.40
2023-01-25T21:31:33.999Z,42.10
2023-01-25T21:34:02.715Z,39.60
2023-01-25T21:36:30.775Z,38.50
2023-01-25T21:38:59.153Z,39.70
2023-01-25T21:41:30.265Z,39.73
2023-01-25T21:44:17.786Z,41.73
2023-01-25T21:47:06.111Z,38.87
2023-01-25T21:49:51.744Z,42.27
2023-01-25T21:52:19.842Z,41.90
2023-01-25T21:54:47.953Z,41.90
2023-01-25T21:57:17.308Z,40.53
2023-01-25T21:59:45.318Z,40.30
2023-01-25T22:02:15.145Z,42.10
2023-01-25T22:04:43.269Z,41.20
2023-01-25T22:07:12.506Z,40.50
2023-01-25T22:09:40.589Z,42.40
2023-01-25T22:12:08.777Z,43.10
2023-01-25T22:14:38.196Z,44.70
2023-01-25T22:17:06.285Z,40.73
2023-01-25T22:19:34.306Z,46.37
2023-01-25T22:22:02.297Z,43.57
2023-01-25T22:24:30.352Z,42.67
2023-01-25T22:27:21.026Z,41.43
2023-01-25T22:29:50.507Z,41.63
2023-01-25T22:32:18.511Z,39.80
2023-01-25T22:34:46.509Z,41.73
2023-01-25T22:37:14.533Z,39.80
2023-01-25T22:39:42.543Z,40.43
2023-01-25T22:42:10.577Z,43.33
2023-01-25T22:44:38.614Z,40.63
2023-01-25T22:47:08.050Z,41.40
2023-01-25T22:49:36.111Z,43.80
2023-01-25T22:52:04.158Z,43.13
2023-01-25T22:54:32.145Z,40.33
2023-01-25T22:57:00.684Z,41.77
2023-01-25T22:59:28.724Z,39.80
2023-01-25T23:01:56.797Z,43.30
2023-01-25T23:04:26.291Z,42.83
2023-01-25T23:07:12.577Z,45.00
2023-01-25T23:09:41.376Z,39.77
2023-01-25T23:12:09.577Z,40.73
2023-01-25T23:14:59.020Z,41.80
2023-01-25T23:17:44.425Z,42.10
2023-01-25T23:20:14.951Z,40.43
2023-01-25T23:22:42.993Z,41.00
2023-01-25T23:25:12.122Z,37.40
2023-01-25T23:27:40.205Z,38.53
2023-01-25T23:30:10.197Z,38.80
2023-01-25T23:32:38.504Z,38.37
2023-01-25T23:35:07.438Z,38.50
2023-01-25T23:37:36.927Z,41.23
2023-01-25T23:40:08.944Z,40.83
2023-01-25T23:42:37.333Z,41.20
2023-01-25T23:45:06.442Z,40.23
2023-01-25T23:47:34.650Z,40.70
2023-01-25T23:50:02.767Z,37.87
2023-01-25T23:52:31.612Z,38.30
2023-01-25T23:55:01.015Z,39.90
2023-01-25T23:57:29.580Z,38.70
2023-01-25T23:59:57.672Z,36.10
